sensor_id;sensor_type;location;lat;lon;timestamp;temperature;humidity
37232;DHT22;23125;48.156;15.954;2022-08-03T00:00:09;21.80;56.60
37232;DHT22;23125;48.156;15.954;2022-08-03T00:02:52;21.70;56.70
37232;DHT22;23125;48.156;15.954;2022-08-03T00:05:25;21.70;56.80
37232;DHT22;23125;48.156;15.954;2022-08-03T00:08:00;21.70;56.70
37232;DHT22;23125;48.156;15.954;2022-08-03T00:10:34;21.70;56.80
37232;DHT22;23125;48.156;15.954;2022-08-03T00:13:07;21.60;56.80
37232;DHT22;23125;48.156;15.954;2022-08-03T00:15:46;21.60;56.80
37232;DHT22;23125;48.156;15.954;2022-08-03T00:18:28;21.60;57.00
37232;DHT22;23125;48.156;15.954;2022-08-03T00:21:08;21.60;57.00
37232;DHT22;23125;48.156;15.954;2022-08-03T00:23:48;21.60;57.00
37232;DHT22;23125;48.156;15.954;2022-08-03T00:26:32;21.50;57.10
37232;DHT22;23125;48.156;15.954;2022-08-03T00:29:05;21.50;57.20
37232;DHT22;23125;48.156;15.954;2022-08-03T00:31:33;21.40;57.20
37232;DHT22;23125;48.156;15.954;2022-08-03T00:34:03;21.50;57.30
37232;DHT22;23125;48.156;15.954;2022-08-03T00:36:33;21.40;57.30
37232;DHT22;23125;48.156;15.954;2022-08-03T00:39:02;21.40;57.40
37232;DHT22;23125;48.156;15.954;2022-08-03T00:41:40;21.30;57.40
37232;DHT22;23125;48.156;15.954;2022-08-03T00:44:24;21.30;57.40
37232;DHT22;23125;48.156;15.954;2022-08-03T00:47:05;21.30;57.50
37232;DHT22;23125;48.156;15.954;2022-08-03T00:49:40;21.30;57.60
37232;DHT22;23125;48.156;15.954;2022-08-03T00:52:15;21.30;57.70
37232;DHT22;23125;48.156;15.954;2022-08-03T00:54:47;21.20;57.60
37232;DHT22;23125;48.156;15.954;2022-08-03T00:57:19;21.30;57.70
37232;DHT22;23125;48.156;15.954;2022-08-03T01:00:03;21.20;57.60
37232;DHT22;23125;48.156;15.954;2022-08-03T01:02:51;21.20;57.70
37232;DHT22;23125;48.156;15.954;2022-08-03T01:05:28;21.20;57.70
37232;DHT22;23125;48.156;15.954;2022-08-03T01:08:29;21.20;57.90
37232;DHT22;23125;48.156;15.954;2022-08-03T01:11:23;21.10;57.90
37232;DHT22;23125;48.156;15.954;2022-08-03T01:14:28;21.10;58.00
37232;DHT22;23125;48.156;15.954;2022-08-03T01:17:35;21.10;58.00
37232;DHT22;23125;48.156;15.954;2022-08-03T01:20:27;21.10;58.00
37232;DHT22;23125;48.156;15.954;2022-08-03T01:23:43;21.00;58.00
37232;DHT22;23125;48.156;15.954;2022-08-03T01:26:40;21.00;58.00
37232;DHT22;23125;48.156;15.954;2022-08-03T01:29:40;21.00;58.10
37232;DHT22;23125;48.156;15.954;2022-08-03T01:32:30;20.90;58.20
37232;DHT22;23125;48.156;15.954;2022-08-03T01:35:19;20.90;58.30
37232;DHT22;23125;48.156;15.954;2022-08-03T01:38:12;20.90;58.80
37232;DHT22;23125;48.156;15.954;2022-08-03T01:41:00;20.80;58.20
37232;DHT22;23125;48.156;15.954;2022-08-03T01:43:46;20.80;58.30
37232;DHT22;23125;48.156;15.954;2022-08-03T01:46:37;20.80;58.30
37232;DHT22;23125;48.156;15.954;2022-08-03T01:49:22;20.80;58.40
37232;DHT22;23125;48.156;15.954;2022-08-03T01:51:58;20.80;58.40
37232;DHT22;23125;48.156;15.954;2022-08-03T01:54:49;20.80;58.50
37232;DHT22;23125;48.156;15.954;2022-08-03T01:57:35;20.70;58.60
37232;DHT22;23125;48.156;15.954;2022-08-03T02:00:25;20.70;58.60
37232;DHT22;23125;48.156;15.954;2022-08-03T02:03:17;20.70;58.60
37232;DHT22;23125;48.156;15.954;2022-08-03T02:06:03;20.70;58.70
37232;DHT22;23125;48.156;15.954;2022-08-03T02:08:45;20.70;58.70
37232;DHT22;23125;48.156;15.954;2022-08-03T02:11:28;20.60;58.70
37232;DHT22;23125;48.156;15.954;2022-08-03T02:14:11;20.60;58.80
37232;DHT22;23125;48.156;15.954;2022-08-03T02:17:00;20.60;58.80
37232;DHT22;23125;48.156;15.954;2022-08-03T02:19:48;20.60;58.90
37232;DHT22;23125;48.156;15.954;2022-08-03T02:22:28;20.50;58.90
37232;DHT22;23125;48.156;15.954;2022-08-03T02:25:02;20.50;59.00
37232;DHT22;23125;48.156;15.954;2022-08-03T02:27:38;20.50;59.00
37232;DHT22;23125;48.156;15.954;2022-08-03T02:30:27;20.50;59.00
37232;DHT22;23125;48.156;15.954;2022-08-03T02:33:38;20.40;59.10
37232;DHT22;23125;48.156;15.954;2022-08-03T02:36:08;20.40;59.10
37232;DHT22;23125;48.156;15.954;2022-08-03T02:38:46;20.40;59.20
37232;DHT22;23125;48.156;15.954;2022-08-03T02:41:40;20.30;59.20
37232;DHT22;23125;48.156;15.954;2022-08-03T02:44:29;20.30;59.20
37232;DHT22;23125;48.156;15.954;2022-08-03T02:47:13;20.30;59.30
37232;DHT22;23125;48.156;15.954;2022-08-03T02:49:53;20.30;59.30
37232;DHT22;23125;48.156;15.954;2022-08-03T02:52:30;20.20;59.40
37232;DHT22;23125;48.156;15.954;2022-08-03T02:55:14;20.20;59.40
37232;DHT22;23125;48.156;15.954;2022-08-03T02:58:02;20.20;59.50
37232;DHT22;23125;48.156;15.954;2022-08-03T03:00:43;20.20;59.50
37232;DHT22;23125;48.156;15.954;2022-08-03T03:03:28;20.20;59.60
37232;DHT22;23125;48.156;15.954;2022-08-03T03:06:02;20.10;59.50
37232;DHT22;23125;48.156;15.954;2022-08-03T03:08:35;20.10;59.60
37232;DHT22;23125;48.156;15.954;2022-08-03T03:11:10;20.10;59.60
37232;DHT22;23125;48.156;15.954;2022-08-03T03:13:51;20.10;59.60
37232;DHT22;23125;48.156;15.954;2022-08-03T03:16:31;20.00;59.70
37232;DHT22;23125;48.156;15.954;2022-08-03T03:19:19;20.00;59.80
37232;DHT22;23125;48.156;15.954;2022-08-03T03:22:00;20.00;59.90
37232;DHT22;23125;48.156;15.954;2022-08-03T03:24:39;20.00;59.90
37232;DHT22;23125;48.156;15.954;2022-08-03T03:27:20;20.00;59.90
37232;DHT22;23125;48.156;15.954;2022-08-03T03:30:01;20.00;60.00
37232;DHT22;23125;48.156;15.954;2022-08-03T03:32:41;20.00;60.00
37232;DHT22;23125;48.156;15.954;2022-08-03T03:35:29;19.90;60.00
37232;DHT22;23125;48.156;15.954;2022-08-03T03:38:13;19.90;60.10
37232;DHT22;23125;48.156;15.954;2022-08-03T03:40:53;19.90;60.20
37232;DHT22;23125;48.156;15.954;2022-08-03T03:43:41;19.90;60.30
37232;DHT22;23125;48.156;15.954;2022-08-03T03:46:27;19.90;60.30
37232;DHT22;23125;48.156;15.954;2022-08-03T03:49:00;19.90;60.40
37232;DHT22;23125;48.156;15.954;2022-08-03T03:51:28;19.90;60.50
37232;DHT22;23125;48.156;15.954;2022-08-03T03:54:02;19.90;60.50
37232;DHT22;23125;48.156;15.954;2022-08-03T03:56:32;19.90;60.60
37232;DHT22;23125;48.156;15.954;2022-08-03T03:59:06;19.80;60.60
37232;DHT22;23125;48.156;15.954;2022-08-03T04:01:35;19.90;60.60
37232;DHT22;23125;48.156;15.954;2022-08-03T04:04:09;19.90;61.10
37232;DHT22;23125;48.156;15.954;2022-08-03T04:07:01;19.90;60.70
37232;DHT22;23125;48.156;15.954;2022-08-03T04:09:59;19.90;60.80
37232;DHT22;23125;48.156;15.954;2022-08-03T04:13:00;19.90;60.80
37232;DHT22;23125;48.156;15.954;2022-08-03T04:15:53;19.90;60.90
37232;DHT22;23125;48.156;15.954;2022-08-03T04:18:40;19.90;60.90
37232;DHT22;23125;48.156;15.954;2022-08-03T04:21:45;19.90;61.00
37232;DHT22;23125;48.156;15.954;2022-08-03T04:24:57;19.90;61.10
37232;DHT22;23125;48.156;15.954;2022-08-03T04:27:43;19.90;61.10
37232;DHT22;23125;48.156;15.954;2022-08-03T04:30:40;20.00;61.20
37232;DHT22;23125;48.156;15.954;2022-08-03T04:33:46;20.00;61.30
37232;DHT22;23125;48.156;15.954;2022-08-03T04:36:46;20.00;61.30
37232;DHT22;23125;48.156;15.954;2022-08-03T04:39:44;20.00;62.00
37232;DHT22;23125;48.156;15.954;2022-08-03T04:42:45;20.00;61.40
37232;DHT22;23125;48.156;15.954;2022-08-03T04:45:36;20.00;61.50
37232;DHT22;23125;48.156;15.954;2022-08-03T04:48:35;20.10;61.60
37232;DHT22;23125;48.156;15.954;2022-08-03T04:51:40;20.10;61.70
37232;DHT22;23125;48.156;15.954;2022-08-03T04:54:47;20.20;61.80
37232;DHT22;23125;48.156;15.954;2022-08-03T04:57:42;20.20;61.80
37232;DHT22;23125;48.156;15.954;2022-08-03T05:00:35;20.20;61.90
37232;DHT22;23125;48.156;15.954;2022-08-03T05:03:40;20.30;62.10
37232;DHT22;23125;48.156;15.954;2022-08-03T05:06:56;20.30;62.10
37232;DHT22;23125;48.156;15.954;2022-08-03T05:09:31;20.30;62.10
37232;DHT22;23125;48.156;15.954;2022-08-03T05:12:03;20.40;62.60
37232;DHT22;23125;48.156;15.954;2022-08-03T05:14:34;20.50;62.80
37232;DHT22;23125;48.156;15.954;2022-08-03T05:17:24;20.60;62.90
37232;DHT22;23125;48.156;15.954;2022-08-03T05:20:24;20.80;64.30
37232;DHT22;23125;48.156;15.954;2022-08-03T05:23:14;21.00;64.50
37232;DHT22;23125;48.156;15.954;2022-08-03T05:25:59;21.20;63.80
37232;DHT22;23125;48.156;15.954;2022-08-03T05:29:08;21.40;64.00
37232;DHT22;23125;48.156;15.954;2022-08-03T05:32:09;21.60;65.50
37232;DHT22;23125;48.156;15.954;2022-08-03T05:35:21;22.30;68.30
37232;DHT22;23125;48.156;15.954;2022-08-03T05:37:50;23.20;69.70
37232;DHT22;23125;48.156;15.954;2022-08-03T05:40:36;24.00;68.90
37232;DHT22;23125;48.156;15.954;2022-08-03T05:43:47;24.70;68.10
37232;DHT22;23125;48.156;15.954;2022-08-03T05:46:46;25.60;67.40
37232;DHT22;23125;48.156;15.954;2022-08-03T05:49:55;26.50;65.50
37232;DHT22;23125;48.156;15.954;2022-08-03T05:53:04;27.30;64.20
37232;DHT22;23125;48.156;15.954;2022-08-03T05:56:23;28.10;62.50
37232;DHT22;23125;48.156;15.954;2022-08-03T05:58:52;29.00;61.30
37232;DHT22;23125;48.156;15.954;2022-08-03T06:01:41;29.80;59.20
37232;DHT22;23125;48.156;15.954;2022-08-03T06:04:32;30.30;57.80
37232;DHT22;23125;48.156;15.954;2022-08-03T06:07:04;31.10;56.60
37232;DHT22;23125;48.156;15.954;2022-08-03T06:09:35;31.70;55.60
37232;DHT22;23125;48.156;15.954;2022-08-03T06:12:03;32.30;54.20
37232;DHT22;23125;48.156;15.954;2022-08-03T06:18:37;33.50;52.50
37232;DHT22;23125;48.156;15.954;2022-08-03T06:25:10;34.90;50.30
37232;DHT22;23125;48.156;15.954;2022-08-03T06:28:32;35.60;49.40
37232;DHT22;23125;48.156;15.954;2022-08-03T06:31:38;36.20;48.30
37232;DHT22;23125;48.156;15.954;2022-08-03T06:37:56;37.20;46.00
37232;DHT22;23125;48.156;15.954;2022-08-03T06:44:21;38.30;43.60
37232;DHT22;23125;48.156;15.954;2022-08-03T06:47:58;38.80;42.40
37232;DHT22;23125;48.156;15.954;2022-08-03T06:51:10;39.30;42.00
37232;DHT22;23125;48.156;15.954;2022-08-03T06:54:26;39.70;40.80
37232;DHT22;23125;48.156;15.954;2022-08-03T06:57:46;40.20;39.80
37232;DHT22;23125;48.156;15.954;2022-08-03T07:00:25;40.60;39.00
37232;DHT22;23125;48.156;15.954;2022-08-03T07:03:19;41.00;37.90
37232;DHT22;23125;48.156;15.954;2022-08-03T07:06:18;41.40;37.20
37232;DHT22;23125;48.156;15.954;2022-08-03T07:09:22;41.70;36.30
37232;DHT22;23125;48.156;15.954;2022-08-03T07:12:31;42.10;35.70
37232;DHT22;23125;48.156;15.954;2022-08-03T07:15:31;42.50;35.00
37232;DHT22;23125;48.156;15.954;2022-08-03T07:19:00;42.80;34.40
37232;DHT22;23125;48.156;15.954;2022-08-03T07:21:52;43.20;33.80
37232;DHT22;23125;48.156;15.954;2022-08-03T07:25:00;43.50;33.10
37232;DHT22;23125;48.156;15.954;2022-08-03T07:28:02;43.80;32.50
37232;DHT22;23125;48.156;15.954;2022-08-03T07:30:33;44.20;32.10
37232;DHT22;23125;48.156;15.954;2022-08-03T07:33:23;44.30;31.20
37232;DHT22;23125;48.156;15.954;2022-08-03T07:36:18;44.40;30.30
37232;DHT22;23125;48.156;15.954;2022-08-03T07:39:16;44.70;29.60
37232;DHT22;23125;48.156;15.954;2022-08-03T07:41:58;44.80;29.00
37232;DHT22;23125;48.156;15.954;2022-08-03T07:44:32;45.00;28.30
37232;DHT22;23125;48.156;15.954;2022-08-03T07:47:06;45.00;27.30
37232;DHT22;23125;48.156;15.954;2022-08-03T07:49:37;44.70;26.50
37232;DHT22;23125;48.156;15.954;2022-08-03T07:52:11;44.70;26.40
37232;DHT22;23125;48.156;15.954;2022-08-03T07:55:02;44.60;26.00
37232;DHT22;23125;48.156;15.954;2022-08-03T07:57:51;44.60;25.90
37232;DHT22;23125;48.156;15.954;2022-08-03T08:00:42;44.60;25.60
37232;DHT22;23125;48.156;15.954;2022-08-03T08:03:32;44.50;24.90
37232;DHT22;23125;48.156;15.954;2022-08-03T08:06:06;44.40;25.10
37232;DHT22;23125;48.156;15.954;2022-08-03T08:08:44;44.40;25.10
37232;DHT22;23125;48.156;15.954;2022-08-03T08:11:17;44.50;24.80
37232;DHT22;23125;48.156;15.954;2022-08-03T08:13:56;44.50;25.00
37232;DHT22;23125;48.156;15.954;2022-08-03T08:16:42;44.60;24.80
37232;DHT22;23125;48.156;15.954;2022-08-03T08:19:26;44.70;24.50
37232;DHT22;23125;48.156;15.954;2022-08-03T08:22:03;44.80;24.70
37232;DHT22;23125;48.156;15.954;2022-08-03T08:24:35;44.90;24.60
37232;DHT22;23125;48.156;15.954;2022-08-03T08:27:20;45.10;25.00
37232;DHT22;23125;48.156;15.954;2022-08-03T08:29:53;45.20;24.20
37232;DHT22;23125;48.156;15.954;2022-08-03T08:32:47;45.30;24.00
37232;DHT22;23125;48.156;15.954;2022-08-03T08:36:01;45.30;24.20
37232;DHT22;23125;48.156;15.954;2022-08-03T08:38:28;45.60;24.20
37232;DHT22;23125;48.156;15.954;2022-08-03T08:41:01;45.90;24.30
37232;DHT22;23125;48.156;15.954;2022-08-03T08:43:30;46.10;23.80
37232;DHT22;23125;48.156;15.954;2022-08-03T08:46:06;46.20;23.80
37232;DHT22;23125;48.156;15.954;2022-08-03T08:48:41;46.50;23.70
37232;DHT22;23125;48.156;15.954;2022-08-03T08:51:26;46.60;23.20
37232;DHT22;23125;48.156;15.954;2022-08-03T08:54:20;46.70;23.20
37232;DHT22;23125;48.156;15.954;2022-08-03T08:57:02;46.80;22.70
37232;DHT22;23125;48.156;15.954;2022-08-03T08:59:46;46.90;22.70
37232;DHT22;23125;48.156;15.954;2022-08-03T09:02:34;46.90;22.50
37232;DHT22;23125;48.156;15.954;2022-08-03T09:05:25;46.90;22.10
37232;DHT22;23125;48.156;15.954;2022-08-03T09:08:15;46.90;22.00
37232;DHT22;23125;48.156;15.954;2022-08-03T09:11:08;46.90;21.90
37232;DHT22;23125;48.156;15.954;2022-08-03T09:14:08;46.90;21.60
37232;DHT22;23125;48.156;15.954;2022-08-03T09:17:07;46.90;21.40
37232;DHT22;23125;48.156;15.954;2022-08-03T09:20:19;46.90;21.20
37232;DHT22;23125;48.156;15.954;2022-08-03T09:23:10;46.90;21.20
37232;DHT22;23125;48.156;15.954;2022-08-03T09:26:02;46.90;20.80
37232;DHT22;23125;48.156;15.954;2022-08-03T09:28:42;46.90;20.80
37232;DHT22;23125;48.156;15.954;2022-08-03T09:31:10;46.90;20.50
37232;DHT22;23125;48.156;15.954;2022-08-03T09:33:59;46.90;20.30
37232;DHT22;23125;48.156;15.954;2022-08-03T09:37:17;46.70;19.90
37232;DHT22;23125;48.156;15.954;2022-08-03T09:39:50;46.50;19.10
37232;DHT22;23125;48.156;15.954;2022-08-03T09:42:37;46.70;18.90
37232;DHT22;23125;48.156;15.954;2022-08-03T09:45:42;46.60;18.70
37232;DHT22;23125;48.156;15.954;2022-08-03T09:48:37;46.60;19.10
37232;DHT22;23125;48.156;15.954;2022-08-03T09:51:19;46.60;19.20
37232;DHT22;23125;48.156;15.954;2022-08-03T09:54:05;46.70;19.50
37232;DHT22;23125;48.156;15.954;2022-08-03T09:56:44;46.70;19.30
37232;DHT22;23125;48.156;15.954;2022-08-03T10:02:40;46.70;19.20
37232;DHT22;23125;48.156;15.954;2022-08-03T10:05:39;46.50;19.00
37232;DHT22;23125;48.156;15.954;2022-08-03T10:08:44;46.40;19.00
37232;DHT22;23125;48.156;15.954;2022-08-03T10:11:45;46.20;19.20
37232;DHT22;23125;48.156;15.954;2022-08-03T10:14:35;46.20;19.50
37232;DHT22;23125;48.156;15.954;2022-08-03T10:17:13;46.10;18.90
37232;DHT22;23125;48.156;15.954;2022-08-03T10:19:42;45.80;18.70
37232;DHT22;23125;48.156;15.954;2022-08-03T10:22:28;45.40;18.60
37232;DHT22;23125;48.156;15.954;2022-08-03T10:25:12;45.10;18.80
37232;DHT22;23125;48.156;15.954;2022-08-03T10:27:57;44.60;18.80
37232;DHT22;23125;48.156;15.954;2022-08-03T10:30:47;44.20;19.00
37232;DHT22;23125;48.156;15.954;2022-08-03T10:33:49;43.80;19.20
37232;DHT22;23125;48.156;15.954;2022-08-03T10:36:44;43.20;19.10
37232;DHT22;23125;48.156;15.954;2022-08-03T10:39:38;42.70;19.30
37232;DHT22;23125;48.156;15.954;2022-08-03T10:42:30;42.10;19.20
37232;DHT22;23125;48.156;15.954;2022-08-03T10:45:40;41.50;19.50
37232;DHT22;23125;48.156;15.954;2022-08-03T10:48:29;41.00;19.90
37232;DHT22;23125;48.156;15.954;2022-08-03T10:51:21;40.70;20.30
37232;DHT22;23125;48.156;15.954;2022-08-03T10:53:58;40.20;20.40
37232;DHT22;23125;48.156;15.954;2022-08-03T10:56:40;39.90;20.40
37232;DHT22;23125;48.156;15.954;2022-08-03T11:00:01;39.50;20.60
37232;DHT22;23125;48.156;15.954;2022-08-03T11:03:08;39.00;20.60
37232;DHT22;23125;48.156;15.954;2022-08-03T11:05:46;38.60;20.70
37232;DHT22;23125;48.156;15.954;2022-08-03T11:08:35;38.20;21.10
37232;DHT22;23125;48.156;15.954;2022-08-03T11:14:19;37.60;21.30
37232;DHT22;23125;48.156;15.954;2022-08-03T11:17:23;37.40;21.50
37232;DHT22;23125;48.156;15.954;2022-08-03T11:20:00;37.10;22.00
37232;DHT22;23125;48.156;15.954;2022-08-03T11:23:00;37.10;22.30
37232;DHT22;23125;48.156;15.954;2022-08-03T11:28:43;36.80;22.60
37232;DHT22;23125;48.156;15.954;2022-08-03T11:34:27;36.70;22.80
37232;DHT22;23125;48.156;15.954;2022-08-03T11:37:36;36.50;22.50
37232;DHT22;23125;48.156;15.954;2022-08-03T11:41:09;36.30;22.60
37232;DHT22;23125;48.156;15.954;2022-08-03T11:44:10;36.10;22.70
37232;DHT22;23125;48.156;15.954;2022-08-03T11:47:14;36.00;23.30
37232;DHT22;23125;48.156;15.954;2022-08-03T11:50:10;36.00;23.20
37232;DHT22;23125;48.156;15.954;2022-08-03T11:52:56;35.80;23.20
37232;DHT22;23125;48.156;15.954;2022-08-03T11:55:38;35.80;23.50
37232;DHT22;23125;48.156;15.954;2022-08-03T11:58:44;35.70;23.60
37232;DHT22;23125;48.156;15.954;2022-08-03T12:01:31;35.60;23.90
37232;DHT22;23125;48.156;15.954;2022-08-03T12:07:48;35.60;24.50
37232;DHT22;23125;48.156;15.954;2022-08-03T12:10:30;35.70;24.60
37232;DHT22;23125;48.156;15.954;2022-08-03T12:13:04;35.60;24.40
37232;DHT22;23125;48.156;15.954;2022-08-03T12:15:48;35.60;24.20
37232;DHT22;23125;48.156;15.954;2022-08-03T12:18:20;35.50;24.30
37232;DHT22;23125;48.156;15.954;2022-08-03T12:21:15;35.30;24.10
37232;DHT22;23125;48.156;15.954;2022-08-03T12:24:23;35.20;24.40
37232;DHT22;23125;48.156;15.954;2022-08-03T12:27:07;35.10;24.50
37232;DHT22;23125;48.156;15.954;2022-08-03T12:29:43;35.10;24.50
37232;DHT22;23125;48.156;15.954;2022-08-03T12:32:20;35.10;25.10
37232;DHT22;23125;48.156;15.954;2022-08-03T12:35:08;35.10;25.20
37232;DHT22;23125;48.156;15.954;2022-08-03T12:38:08;35.00;25.10
37232;DHT22;23125;48.156;15.954;2022-08-03T12:41:12;35.00;25.00
37232;DHT22;23125;48.156;15.954;2022-08-03T12:43:57;34.90;25.00
37232;DHT22;23125;48.156;15.954;2022-08-03T12:46:55;34.90;24.80
37232;DHT22;23125;48.156;15.954;2022-08-03T12:50:21;34.80;24.80
37232;DHT22;23125;48.156;15.954;2022-08-03T12:53:27;34.70;25.00
37232;DHT22;23125;48.156;15.954;2022-08-03T12:56:02;34.70;25.00
37232;DHT22;23125;48.156;15.954;2022-08-03T12:59:05;34.70;25.10
37232;DHT22;23125;48.156;15.954;2022-08-03T13:02:23;34.60;24.80
37232;DHT22;23125;48.156;15.954;2022-08-03T13:05:35;34.50;24.80
37232;DHT22;23125;48.156;15.954;2022-08-03T13:09:14;34.50;25.00
37232;DHT22;23125;48.156;15.954;2022-08-03T13:12:22;34.50;25.00
37232;DHT22;23125;48.156;15.954;2022-08-03T13:15:19;34.40;25.00
37232;DHT22;23125;48.156;15.954;2022-08-03T13:18:10;34.40;25.00
37232;DHT22;23125;48.156;15.954;2022-08-03T13:21:03;34.30;25.00
37232;DHT22;23125;48.156;15.954;2022-08-03T13:23:59;34.30;25.00
37232;DHT22;23125;48.156;15.954;2022-08-03T13:26:45;34.30;25.20
37232;DHT22;23125;48.156;15.954;2022-08-03T13:29:35;34.30;25.20
37232;DHT22;23125;48.156;15.954;2022-08-03T13:32:23;34.30;25.00
37232;DHT22;23125;48.156;15.954;2022-08-03T13:34:58;34.20;25.00
37232;DHT22;23125;48.156;15.954;2022-08-03T13:37:36;34.20;24.90
37232;DHT22;23125;48.156;15.954;2022-08-03T13:40:22;34.10;25.10
37232;DHT22;23125;48.156;15.954;2022-08-03T13:43:19;34.10;25.20
37232;DHT22;23125;48.156;15.954;2022-08-03T13:46:11;34.10;25.40
37232;DHT22;23125;48.156;15.954;2022-08-03T13:49:05;34.10;25.30
37232;DHT22;23125;48.156;15.954;2022-08-03T13:52:07;34.10;25.80
37232;DHT22;23125;48.156;15.954;2022-08-03T13:55:06;34.10;26.00
37232;DHT22;23125;48.156;15.954;2022-08-03T13:57:42;34.10;26.00
37232;DHT22;23125;48.156;15.954;2022-08-03T14:00:43;34.10;26.00
37232;DHT22;23125;48.156;15.954;2022-08-03T14:03:35;34.00;25.70
37232;DHT22;23125;48.156;15.954;2022-08-03T14:06:26;34.00;25.60
37232;DHT22;23125;48.156;15.954;2022-08-03T14:09:08;34.00;25.60
37232;DHT22;23125;48.156;15.954;2022-08-03T14:11:56;33.90;25.60
37232;DHT22;23125;48.156;15.954;2022-08-03T14:14:38;33.90;25.60
37232;DHT22;23125;48.156;15.954;2022-08-03T14:17:29;33.90;26.00
37232;DHT22;23125;48.156;15.954;2022-08-03T14:20:19;33.90;26.00
37232;DHT22;23125;48.156;15.954;2022-08-03T14:23:09;33.90;26.00
37232;DHT22;23125;48.156;15.954;2022-08-03T14:26:13;33.80;26.00
37232;DHT22;23125;48.156;15.954;2022-08-03T14:28:57;33.80;25.90
37232;DHT22;23125;48.156;15.954;2022-08-03T14:31:54;33.80;25.80
37232;DHT22;23125;48.156;15.954;2022-08-03T14:34:33;33.80;26.00
37232;DHT22;23125;48.156;15.954;2022-08-03T14:37:23;33.80;26.00
37232;DHT22;23125;48.156;15.954;2022-08-03T14:40:08;33.70;26.20
37232;DHT22;23125;48.156;15.954;2022-08-03T14:43:02;33.70;26.20
37232;DHT22;23125;48.156;15.954;2022-08-03T14:45:58;33.70;26.20
37232;DHT22;23125;48.156;15.954;2022-08-03T14:48:46;33.60;26.20
37232;DHT22;23125;48.156;15.954;2022-08-03T14:51:19;33.60;26.30
37232;DHT22;23125;48.156;15.954;2022-08-03T14:54:01;33.60;26.20
37232;DHT22;23125;48.156;15.954;2022-08-03T14:56:45;33.60;26.40
37232;DHT22;23125;48.156;15.954;2022-08-03T14:59:25;33.60;26.50
37232;DHT22;23125;48.156;15.954;2022-08-03T15:02:04;33.50;26.40
37232;DHT22;23125;48.156;15.954;2022-08-03T15:04:42;33.50;26.50
37232;DHT22;23125;48.156;15.954;2022-08-03T15:07:25;33.50;26.60
37232;DHT22;23125;48.156;15.954;2022-08-03T15:10:14;33.50;26.80
37232;DHT22;23125;48.156;15.954;2022-08-03T15:12:50;33.40;27.20
37232;DHT22;23125;48.156;15.954;2022-08-03T15:15:24;33.40;27.40
37232;DHT22;23125;48.156;15.954;2022-08-03T15:18:04;33.40;27.40
37232;DHT22;23125;48.156;15.954;2022-08-03T15:20:44;33.50;27.50
37232;DHT22;23125;48.156;15.954;2022-08-03T15:23:18;33.50;27.50
37232;DHT22;23125;48.156;15.954;2022-08-03T15:25:59;33.40;27.40
37232;DHT22;23125;48.156;15.954;2022-08-03T15:28:33;33.40;27.50
37232;DHT22;23125;48.156;15.954;2022-08-03T15:31:11;33.40;27.50
37232;DHT22;23125;48.156;15.954;2022-08-03T15:33:45;33.40;27.60
37232;DHT22;23125;48.156;15.954;2022-08-03T15:36:30;33.40;27.80
37232;DHT22;23125;48.156;15.954;2022-08-03T15:39:32;33.30;27.60
37232;DHT22;23125;48.156;15.954;2022-08-03T15:42:36;33.30;27.70
37232;DHT22;23125;48.156;15.954;2022-08-03T15:45:31;33.30;28.00
37232;DHT22;23125;48.156;15.954;2022-08-03T15:48:42;33.30;28.10
37232;DHT22;23125;48.156;15.954;2022-08-03T15:51:29;33.30;28.20
37232;DHT22;23125;48.156;15.954;2022-08-03T15:54:27;33.30;28.50
37232;DHT22;23125;48.156;15.954;2022-08-03T15:57:26;33.20;28.30
37232;DHT22;23125;48.156;15.954;2022-08-03T16:00:20;33.20;28.50
37232;DHT22;23125;48.156;15.954;2022-08-03T16:03:10;33.20;29.00
37232;DHT22;23125;48.156;15.954;2022-08-03T16:06:05;33.20;28.60
37232;DHT22;23125;48.156;15.954;2022-08-03T16:08:52;33.20;28.60
37232;DHT22;23125;48.156;15.954;2022-08-03T16:11:49;33.20;28.70
37232;DHT22;23125;48.156;15.954;2022-08-03T16:14:48;33.20;28.70
37232;DHT22;23125;48.156;15.954;2022-08-03T16:20:59;33.10;28.60
37232;DHT22;23125;48.156;15.954;2022-08-03T16:23:54;33.10;28.50
37232;DHT22;23125;48.156;15.954;2022-08-03T16:26:46;33.10;28.50
37232;DHT22;23125;48.156;15.954;2022-08-03T16:29:38;33.00;28.70
37232;DHT22;23125;48.156;15.954;2022-08-03T16:32:29;33.00;28.70
37232;DHT22;23125;48.156;15.954;2022-08-03T16:35:19;33.00;28.70
37232;DHT22;23125;48.156;15.954;2022-08-03T16:38:25;33.00;28.60
37232;DHT22;23125;48.156;15.954;2022-08-03T16:41:07;33.00;28.80
37232;DHT22;23125;48.156;15.954;2022-08-03T16:43:58;33.00;29.10
37232;DHT22;23125;48.156;15.954;2022-08-03T16:46:38;32.90;28.90
37232;DHT22;23125;48.156;15.954;2022-08-03T16:49:27;32.90;29.20
37232;DHT22;23125;48.156;15.954;2022-08-03T16:52:15;32.90;29.20
37232;DHT22;23125;48.156;15.954;2022-08-03T16:55:05;32.80;29.30
37232;DHT22;23125;48.156;15.954;2022-08-03T16:57:54;32.80;29.30
37232;DHT22;23125;48.156;15.954;2022-08-03T17:00:36;32.80;29.60
37232;DHT22;23125;48.156;15.954;2022-08-03T17:03:13;32.80;29.40
37232;DHT22;23125;48.156;15.954;2022-08-03T17:05:58;32.70;29.50
37232;DHT22;23125;48.156;15.954;2022-08-03T17:09:03;32.70;29.70
37232;DHT22;23125;48.156;15.954;2022-08-03T17:11:45;32.60;29.90
37232;DHT22;23125;48.156;15.954;2022-08-03T17:14:35;32.60;30.00
37232;DHT22;23125;48.156;15.954;2022-08-03T17:17:32;32.60;30.40
37232;DHT22;23125;48.156;15.954;2022-08-03T17:20:23;32.60;30.40
37232;DHT22;23125;48.156;15.954;2022-08-03T17:26:36;32.50;30.50
37232;DHT22;23125;48.156;15.954;2022-08-03T17:29:50;32.50;30.70
37232;DHT22;23125;48.156;15.954;2022-08-03T17:35:59;32.40;31.00
37232;DHT22;23125;48.156;15.954;2022-08-03T17:38:51;32.30;31.30
37232;DHT22;23125;48.156;15.954;2022-08-03T17:41:56;32.30;31.70
37232;DHT22;23125;48.156;15.954;2022-08-03T17:44:43;32.20;31.80
37232;DHT22;23125;48.156;15.954;2022-08-03T17:47:44;32.20;32.20
37232;DHT22;23125;48.156;15.954;2022-08-03T17:50:42;32.10;32.60
37232;DHT22;23125;48.156;15.954;2022-08-03T17:53:33;32.10;33.60
37232;DHT22;23125;48.156;15.954;2022-08-03T17:56:19;32.00;33.30
37232;DHT22;23125;48.156;15.954;2022-08-03T18:02:44;31.80;33.90
37232;DHT22;23125;48.156;15.954;2022-08-03T18:05:54;31.80;34.10
37232;DHT22;23125;48.156;15.954;2022-08-03T18:08:49;31.70;34.50
37232;DHT22;23125;48.156;15.954;2022-08-03T18:11:36;31.60;34.60
37232;DHT22;23125;48.156;15.954;2022-08-03T18:14:38;31.50;34.70